Time;durP1;ratioP1;P1;durP2;ratioP2;P2;SDS_P1;SDS_P2;PMS_P1;PMS_P2;Temp;Humidity;BMP_temperature;BMP_pressure;BME280_temperature;BME280_humidity;BME280_pressure;Samples;Min_cycle;Max_cycle;Signal;HPM_P1;HPM_P2
2021/01/03 00:00:53;;;;;;;100.88;33.28;;;;;;;2.69;100.00;101450.16;4953995;28;20062;-77
2021/01/03 00:03:19;;;;;;;114.63;33.15;;;;;;;2.63;100.00;101458.50;4954033;28;20035;-77
2021/01/03 00:05:44;;;;;;;128.15;34.42;;;;;;;2.63;100.00;101442.63;4953347;28;20054;-77
2021/01/03 00:08:10;;;;;;;136.68;37.72;;;;;;;2.56;100.00;101444.78;4953542;29;20094;-77
2021/01/03 00:10:35;;;;;;;127.25;34.88;;;;;;;2.54;100.00;101444.91;4953618;28;20041;-79
2021/01/03 00:13:01;;;;;;;148.18;37.80;;;;;;;2.55;100.00;101448.41;4953744;28;20039;-77
2021/01/03 00:15:26;;;;;;;153.63;37.30;;;;;;;2.56;100.00;101443.03;4953427;28;20531;-77
2021/01/03 00:17:52;;;;;;;139.57;39.05;;;;;;;2.58;100.00;101440.28;4953672;28;20031;-78
2021/01/03 00:20:23;;;;;;;142.77;37.60;;;;;;;2.60;100.00;101439.19;4945792;28;20031;-77
2021/01/03 00:22:49;;;;;;;164.82;40.40;;;;;;;2.63;100.00;101438.16;4949213;29;20082;-77
2021/01/03 00:25:16;;;;;;;128.65;36.78;;;;;;;2.62;100.00;101436.47;4953577;29;20504;-77
2021/01/03 00:27:41;;;;;;;131.20;36.13;;;;;;;2.63;100.00;101440.81;4953249;28;20039;-78
2021/01/03 00:30:09;;;;;;;135.93;34.97;;;;;;;2.64;100.00;101439.84;4953740;28;20055;-77
2021/01/03 00:32:36;;;;;;;133.70;34.15;;;;;;;2.67;100.00;101433.53;4953044;28;20039;-77
2021/01/03 00:35:03;;;;;;;130.30;36.63;;;;;;;2.63;100.00;101435.50;4953557;28;20039;-78
2021/01/03 00:37:29;;;;;;;133.55;33.38;;;;;;;2.69;100.00;101436.91;4953116;28;20067;-77
2021/01/03 00:39:54;;;;;;;131.60;36.40;;;;;;;2.66;100.00;101443.28;4946497;29;20515;-78
2021/01/03 00:42:19;;;;;;;128.07;32.42;;;;;;;2.62;100.00;101433.81;4952985;29;20035;-77
2021/01/03 00:44:45;;;;;;;125.03;32.85;;;;;;;2.69;100.00;101434.25;4953360;28;20111;-77
2021/01/03 00:47:11;;;;;;;124.15;33.60;;;;;;;2.63;100.00;101432.88;4952542;28;20031;-77
2021/01/03 00:49:37;;;;;;;137.68;34.08;;;;;;;2.63;100.00;101435.50;4953417;28;20039;-76
2021/01/03 00:52:02;;;;;;;131.80;34.22;;;;;;;2.58;100.00;101430.53;4952838;28;20027;-78
2021/01/03 00:54:28;;;;;;;121.82;31.85;;;;;;;2.60;100.00;101436.56;4953353;28;20474;-77
2021/01/03 00:56:53;;;;;;;112.93;30.65;;;;;;;2.59;100.00;101428.72;4952480;28;20031;-77
2021/01/03 00:59:19;;;;;;;115.05;32.25;;;;;;;2.61;100.00;101432.13;4953328;28;20034;-77
2021/01/03 01:01:44;;;;;;;120.13;31.00;;;;;;;2.59;100.00;101428.72;4952440;29;20039;-79
2021/01/03 01:04:10;;;;;;;125.90;32.03;;;;;;;2.62;100.00;101435.63;4953232;28;20490;-77
2021/01/03 01:06:35;;;;;;;120.85;30.52;;;;;;;2.60;100.00;101425.09;4951832;29;20039;-77
2021/01/03 01:09:01;;;;;;;125.30;31.35;;;;;;;2.67;100.00;101438.81;4953044;28;20032;-77
2021/01/03 01:11:28;;;;;;;119.88;30.92;;;;;;;2.68;100.00;101438.72;4951422;29;20035;-79
2021/01/03 01:13:53;;;;;;;123.25;33.22;;;;;;;2.67;100.00;101436.19;4967958;28;20548;-76
2021/01/03 01:16:19;;;;;;;122.97;32.28;;;;;;;2.63;100.00;101437.31;4951964;28;20043;-78
2021/01/03 01:18:44;;;;;;;127.00;30.13;;;;;;;2.60;100.00;101444.50;4952820;28;20143;-76
2021/01/03 01:21:10;;;;;;;130.10;32.88;;;;;;;2.55;100.00;101440.44;4940057;29;20306;-78
2021/01/03 01:23:35;;;;;;;144.05;35.38;;;;;;;2.52;100.00;101438.88;4952933;29;20122;-77
2021/01/03 01:26:01;;;;;;;132.23;33.53;;;;;;;2.55;100.00;101437.81;4952789;28;20504;-78
2021/01/03 01:28:27;;;;;;;141.73;34.63;;;;;;;2.59;100.00;101447.25;4951226;28;20039;-77
2021/01/03 01:30:53;;;;;;;148.93;33.97;;;;;;;2.59;100.00;101440.16;4952490;28;20051;-79
2021/01/03 01:33:19;;;;;;;155.18;35.88;;;;;;;2.58;100.00;101448.22;4952645;28;20050;-77
2021/01/03 01:35:45;;;;;;;172.05;38.03;;;;;;;2.55;100.00;101445.75;4952559;28;20035;-77
2021/01/03 01:38:10;;;;;;;182.18;38.45;;;;;;;2.54;100.00;101439.59;4951828;28;20519;-76
2021/01/03 01:40:38;;;;;;;190.77;39.30;;;;;;;2.56;100.00;101445.69;4954793;28;20027;-76
2021/01/03 01:43:07;;;;;;;189.05;40.38;;;;;;;2.56;100.00;101447.44;4956611;29;20400;-77
2021/01/03 01:45:35;;;;;;;193.32;42.45;;;;;;;2.54;100.00;101444.06;4956990;28;20255;-77
2021/01/03 01:48:06;;;;;;;176.63;38.85;;;;;;;2.62;100.00;101440.94;4956151;28;20031;-78
2021/01/03 01:50:42;;;;;;;187.43;40.08;;;;;;;2.59;100.00;101449.91;4956416;28;20129;-77
2021/01/03 01:53:11;;;;;;;;;;;;;;;2.61;100.00;101450.69;4956865;29;20093;-79
2021/01/03 01:55:43;;;;;;;182.48;38.50;;;;;;;2.58;100.00;101450.88;4956410;28;20005;-77
2021/01/03 01:58:17;;;;;;;199.07;39.20;;;;;;;2.58;100.00;101442.91;4956060;28;20030;-77
2021/01/03 02:00:51;;;;;;;204.20;43.07;;;;;;;2.56;100.00;101450.09;4955720;28;20497;-77
2021/01/03 02:03:28;;;;;;;215.45;43.42;;;;;;;2.55;100.00;101445.75;4950530;28;20044;-77
2021/01/03 02:06:00;;;;;;;255.70;44.10;;;;;;;2.55;100.00;101456.34;4954323;28;20531;-77
2021/01/03 02:08:40;;;;;;;215.68;44.17;;;;;;;2.58;100.00;101448.22;4953671;28;20082;-78
2021/01/03 02:11:11;;;;;;;224.52;41.47;;;;;;;2.59;100.00;101448.09;4954588;28;20101;-80
2021/01/03 02:13:42;;;;;;;218.63;41.70;;;;;;;2.60;100.00;101436.56;4953822;28;20042;-77
2021/01/03 02:16:12;;;;;;;197.57;41.45;;;;;;;2.61;100.00;101440.06;4969262;28;20035;-79
2021/01/03 02:18:39;;;;;;;215.07;42.22;;;;;;;2.65;100.00;101438.06;4957745;28;20090;-79
2021/01/03 02:21:12;;;;;;;196.90;41.33;;;;;;;2.64;100.00;101442.50;4942887;28;20028;-78
2021/01/03 02:24:05;;;;;;;228.30;42.78;;;;;;;2.62;100.00;101448.88;4955325;28;20039;-79
2021/01/03 02:26:36;;;;;;;240.52;43.03;;;;;;;2.62;100.00;101446.22;4970149;28;20027;-77
2021/01/03 02:29:04;;;;;;;210.95;40.97;;;;;;;2.65;100.00;101448.66;4955737;28;20030;-80
2021/01/03 02:31:37;;;;;;;244.60;42.40;;;;;;;2.63;100.00;101443.47;4955519;28;20091;-78
2021/01/03 02:34:05;;;;;;;247.77;42.30;;;;;;;2.65;100.00;101438.91;4955722;28;20038;-78
2021/01/03 02:36:37;;;;;;;213.65;41.60;;;;;;;2.62;100.00;101446.22;4942690;29;20032;-78
2021/01/03 02:39:19;;;;;;;229.38;41.72;;;;;;;2.64;100.00;101452.25;4954804;28;20027;-78
2021/01/03 02:41:45;;;;;;;201.93;40.53;;;;;;;2.62;100.00;101448.88;4955178;29;20039;-78
2021/01/03 02:44:11;;;;;;;203.23;40.25;;;;;;;2.64;100.00;101447.81;4954887;28;20114;-78
2021/01/03 02:46:43;;;;;;;200.77;39.80;;;;;;;2.71;100.00;101442.94;4955192;28;20032;-79
2021/01/03 02:49:09;;;;;;;175.65;34.88;;;;;;;2.79;100.00;101443.31;4954756;28;20023;-77
2021/01/03 02:51:38;;;;;;;143.88;34.03;;;;;;;2.73;100.00;101439.25;4953810;28;20503;-78
2021/01/03 02:54:06;;;;;;;151.13;33.45;;;;;;;2.72;100.00;101437.56;4969570;28;20067;-77
2021/01/03 02:56:36;;;;;;;123.45;29.50;;;;;;;2.64;100.00;101436.38;4954788;29;20089;-77
2021/01/03 02:59:02;;;;;;;132.40;29.25;;;;;;;2.65;100.00;101435.41;4954479;28;20039;-78
2021/01/03 03:01:28;;;;;;;125.80;28.88;;;;;;;2.65;100.00;101428.31;4955083;28;20035;-79
2021/01/03 03:03:53;;;;;;;120.40;27.63;;;;;;;2.64;100.00;101423.13;4954514;28;20035;-77
2021/01/03 03:06:19;;;;;;;115.15;29.08;;;;;;;2.64;100.00;101431.91;4954481;28;20432;-78
2021/01/03 03:08:45;;;;;;;107.03;27.33;;;;;;;2.61;100.00;101424.19;4954161;29;20106;-78
2021/01/03 03:11:19;;;;;;;116.18;27.98;;;;;;;2.62;100.00;101427.69;4954853;28;20027;-78
2021/01/03 03:13:45;;;;;;;109.70;27.48;;;;;;;2.57;100.00;101430.63;4954411;28;20063;-77
2021/01/03 03:16:10;;;;;;;109.25;27.23;;;;;;;2.58;100.00;101424.38;4954533;28;20031;-77
2021/01/03 03:18:36;;;;;;;98.80;26.10;;;;;;;2.56;100.00;101426.25;4968957;28;20031;-79
2021/01/03 03:21:02;;;;;;;104.45;26.25;;;;;;;2.52;100.00;101425.63;4941452;29;20106;-77
2021/01/03 03:23:27;;;;;;;116.18;28.40;;;;;;;2.55;100.00;101425.41;4954306;28;20035;-78
2021/01/03 03:25:53;;;;;;;104.95;27.33;;;;;;;2.58;100.00;101433.16;4954402;28;20042;-78
2021/01/03 03:28:18;;;;;;;114.25;25.00;;;;;;;2.53;100.00;101434.41;4954378;29;20107;-77
2021/01/03 03:30:44;;;;;;;113.70;29.88;;;;;;;2.52;100.00;101428.28;4954467;29;20031;-77
2021/01/03 03:33:10;;;;;;;122.18;29.98;;;;;;;2.59;100.00;101424.25;4953246;28;20448;-77
2021/01/03 03:35:37;;;;;;;128.48;30.35;;;;;;;2.57;100.00;101417.38;4953159;28;20454;-77
2021/01/03 03:38:05;;;;;;;120.25;28.95;;;;;;;2.55;100.00;101427.22;4967071;28;20030;-78
2021/01/03 03:40:32;;;;;;;144.25;33.13;;;;;;;2.51;100.00;101425.72;4953868;28;20126;-77
2021/01/03 03:42:58;;;;;;;127.55;30.65;;;;;;;2.51;100.00;101434.53;4954380;29;20042;-78
2021/01/03 03:45:23;;;;;;;141.05;31.73;;;;;;;2.58;100.00;101429.66;4953915;28;20039;-79
2021/01/03 03:47:49;;;;;;;135.35;31.85;;;;;;;2.53;100.00;101431.78;4953728;28;20039;-77
2021/01/03 03:50:19;;;;;;;133.10;31.30;;;;;;;2.48;100.00;101431.22;4953926;29;20050;-78
2021/01/03 03:52:45;;;;;;;130.35;29.95;;;;;;;2.51;100.00;101431.00;4941337;29;20032;-77
2021/01/03 03:55:11;;;;;;;122.80;29.48;;;;;;;2.50;100.00;101427.50;4952611;29;20062;-78
2021/01/03 03:57:37;;;;;;;128.90;30.77;;;;;;;2.50;100.00;101431.97;4941111;29;20489;-77
2021/01/03 04:00:07;;;;;;;137.10;30.00;;;;;;;2.46;100.00;101430.44;4953635;28;20033;-79
2021/01/03 04:02:32;;;;;;;131.18;29.92;;;;;;;2.50;100.00;101426.66;4953621;28;20042;-77
2021/01/03 04:04:58;;;;;;;142.55;33.25;;;;;;;2.45;100.00;101429.59;4953132;28;20035;-78
2021/01/03 04:07:23;;;;;;;135.82;34.25;;;;;;;2.47;100.00;101422.44;4953270;28;20027;-77
2021/01/03 04:09:49;;;;;;;145.23;31.40;;;;;;;2.50;100.00;101424.84;4953379;29;20086;-80
2021/01/03 04:12:15;;;;;;;159.70;32.60;;;;;;;2.49;100.00;101420.50;4953651;28;20094;-79
2021/01/03 04:14:40;;;;;;;150.40;35.15;;;;;;;2.51;100.00;101425.72;4953366;28;20031;-77
2021/01/03 04:17:06;;;;;;;156.13;34.40;;;;;;;2.53;100.00;101426.47;4967921;28;20473;-77
2021/01/03 04:19:32;;;;;;;134.15;32.80;;;;;;;2.53;100.00;101423.81;4951930;29;20497;-78
2021/01/03 04:22:00;;;;;;;139.85;31.42;;;;;;;2.50;100.00;101418.72;4941870;29;20043;-77
2021/01/03 04:24:27;;;;;;;128.63;31.85;;;;;;;2.48;100.00;101415.34;4953391;28;20047;-79
2021/01/03 04:26:56;;;;;;;131.43;30.92;;;;;;;2.45;100.00;101418.16;4952858;28;20035;-77
2021/01/03 04:29:22;;;;;;;136.43;32.70;;;;;;;2.42;100.00;101426.34;4953498;28;20039;-77
2021/01/03 04:31:54;;;;;;;140.43;33.65;;;;;;;2.42;100.00;101432.47;4953493;28;20031;-77
2021/01/03 04:34:19;;;;;;;135.50;32.22;;;;;;;2.50;100.00;101431.97;4968112;28;20039;-78
2021/01/03 04:36:49;;;;;;;140.35;32.33;;;;;;;2.49;100.00;101431.13;4953099;29;20031;-77
2021/01/03 04:39:16;;;;;;;136.35;32.38;;;;;;;2.42;100.00;101429.81;4953151;29;20067;-77
2021/01/03 04:41:42;;;;;;;128.52;32.67;;;;;;;2.49;100.00;101430.25;4952717;29;20039;-77
2021/01/03 04:44:15;;;;;;;134.60;31.73;;;;;;;2.49;100.00;101440.84;4953094;28;20389;-78
2021/01/03 04:46:41;;;;;;;147.52;31.95;;;;;;;2.52;100.00;101438.03;4952134;28;20470;-79
2021/01/03 04:49:21;;;;;;;142.82;31.83;;;;;;;2.47;100.00;101426.88;4953009;28;20397;-77
2021/01/03 04:52:18;;;;;;;137.30;33.65;;;;;;;2.47;100.00;101425.09;4952971;28;20034;-77
2021/01/03 04:54:54;;;;;;;150.27;35.13;;;;;;;2.48;100.00;101428.56;4944360;29;20401;-77
2021/01/03 04:57:33;;;;;;;150.40;35.72;;;;;;;2.50;100.00;101429.31;4952013;28;20196;-77
2021/01/03 05:00:00;;;;;;;158.02;36.17;;;;;;;2.47;100.00;101424.22;4967604;28;20054;-79
2021/01/03 05:02:44;;;;;;;146.32;36.75;;;;;;;2.52;100.00;101444.16;4952422;28;20027;-78
2021/01/03 05:05:26;;;;;;;146.00;35.47;;;;;;;2.49;100.00;101431.13;4952455;28;20058;-77
2021/01/03 05:08:03;;;;;;;160.02;39.83;;;;;;;2.51;100.00;101434.53;4952137;28;20027;-78
2021/01/03 05:10:28;;;;;;;155.70;36.42;;;;;;;2.57;100.00;101423.53;4952756;28;20036;-78
2021/01/03 05:13:04;;;;;;;152.77;38.65;;;;;;;2.51;100.00;101436.31;4952547;28;20180;-77
2021/01/03 05:15:32;;;;;;;152.55;36.45;;;;;;;2.48;100.00;101431.22;4951833;28;20063;-77
2021/01/03 05:17:58;;;;;;;151.98;35.33;;;;;;;2.51;100.00;101429.22;4952260;28;20039;-78
2021/01/03 05:20:24;;;;;;;153.50;35.45;;;;;;;2.50;100.00;101432.81;4967577;28;20569;-78
2021/01/03 05:22:50;;;;;;;149.23;36.80;;;;;;;2.55;100.00;101443.09;4952631;28;20083;-78
2021/01/03 05:25:19;;;;;;;134.70;33.72;;;;;;;2.50;100.00;101439.91;4952620;28;20042;-78
2021/01/03 05:28:07;;;;;;;142.75;33.53;;;;;;;2.56;100.00;101450.09;4951925;28;20032;-78
2021/01/03 05:30:32;;;;;;;137.32;33.70;;;;;;;2.58;100.00;101448.22;4952669;28;20031;-78
2021/01/03 05:33:10;;;;;;;137.82;36.42;;;;;;;2.49;100.00;101449.66;4952211;29;20089;-77
2021/01/03 05:35:39;;;;;;;135.68;35.10;;;;;;;2.43;100.00;101446.56;4952641;28;20301;-78
2021/01/03 05:38:06;;;;;;;139.88;33.38;;;;;;;2.43;100.00;101438.63;4939279;29;20027;-77
2021/01/03 05:40:34;;;;;;;133.68;34.78;;;;;;;2.47;100.00;101442.78;4952150;29;20085;-78
2021/01/03 05:43:10;;;;;;;141.23;31.88;;;;;;;2.45;100.00;101448.16;4952101;28;20032;-78
2021/01/03 05:45:40;;;;;;;138.13;34.47;;;;;;;2.43;100.00;101450.06;4967106;28;20043;-76
2021/01/03 05:48:06;;;;;;;146.13;33.17;;;;;;;2.41;100.00;101457.25;4952129;28;20102;-77
2021/01/03 05:50:35;;;;;;;124.40;30.48;;;;;;;2.49;100.00;101454.94;4952306;28;20445;-77
2021/01/03 05:53:16;;;;;;;135.15;32.45;;;;;;;2.55;100.00;101459.84;4952361;28;20035;-77
2021/01/03 05:55:51;;;;;;;133.05;30.73;;;;;;;2.51;100.00;101460.13;4952198;28;20042;-78
2021/01/03 05:58:20;;;;;;;118.97;30.60;;;;;;;2.47;100.00;101456.84;4952093;29;20046;-78
2021/01/03 06:00:46;;;;;;;133.32;32.92;;;;;;;2.45;100.00;101460.53;4952441;28;20037;-77
2021/01/03 06:03:20;;;;;;;128.52;32.92;;;;;;;2.45;100.00;101471.97;4952269;28;20039;-78
2021/01/03 06:05:49;;;;;;;135.48;33.78;;;;;;;2.47;100.00;101474.56;4939889;29;20106;-81
2021/01/03 06:08:25;;;;;;;125.65;30.67;;;;;;;2.55;100.00;101472.25;4951786;29;20031;-78
2021/01/03 06:10:55;;;;;;;134.00;35.03;;;;;;;2.50;100.00;101463.75;4951171;28;20038;-79
2021/01/03 06:13:25;;;;;;;123.88;33.03;;;;;;;2.55;100.00;101469.59;4951898;28;20035;-79
2021/01/03 06:15:56;;;;;;;111.78;29.75;;;;;;;2.51;100.00;101470.72;4952466;28;20027;-78
2021/01/03 06:18:33;;;;;;;122.30;30.30;;;;;;;2.54;100.00;101470.53;4951285;28;20370;-78
2021/01/03 06:20:59;;;;;;;119.75;28.73;;;;;;;2.51;100.00;101471.63;4933366;29;20039;-79
2021/01/03 06:23:33;;;;;;;120.47;30.45;;;;;;;2.52;100.00;101465.34;4950741;28;20038;-79
2021/01/03 06:26:09;;;;;;;126.80;30.57;;;;;;;2.47;100.00;101467.47;4953884;28;20062;-79
2021/01/03 06:28:40;;;;;;;124.57;30.67;;;;;;;2.45;100.00;101469.34;4955379;28;20027;-77
2021/01/03 06:31:13;;;;;;;115.22;29.42;;;;;;;2.51;100.00;101476.03;4970235;28;20108;-78
2021/01/03 06:33:39;;;;;;;119.70;30.10;;;;;;;2.52;100.00;101477.75;4955206;28;20122;-77
2021/01/03 06:36:18;;;;;;;125.55;30.33;;;;;;;2.54;100.00;101467.91;4955481;28;20123;-78
2021/01/03 06:39:10;;;;;;;132.20;30.60;;;;;;;2.53;100.00;101476.81;4955116;28;20062;-78
2021/01/03 06:41:42;;;;;;;127.30;30.63;;;;;;;2.56;100.00;101479.22;4959635;28;20074;-77
2021/01/03 06:44:39;;;;;;;111.45;31.33;;;;;;;2.53;100.00;101476.81;4955004;28;20038;-81
2021/01/03 06:47:38;;;;;;;112.63;30.70;;;;;;;2.51;100.00;101482.22;4954882;28;20031;-78
2021/01/03 06:50:26;;;;;;;95.38;27.85;;;;;;;2.47;100.00;101479.84;4970063;28;20039;-78
2021/01/03 06:53:10;;;;;;;126.95;30.77;;;;;;;2.45;100.00;101487.03;4955386;28;20454;-78
2021/01/03 06:55:53;;;;;;;123.65;32.38;;;;;;;2.40;100.00;101471.44;4954992;28;20054;-79
2021/01/03 06:58:54;;;;;;;128.18;31.65;;;;;;;2.40;100.00;101476.72;4954870;28;20050;-80
2021/01/03 07:01:24;;;;;;;129.25;31.42;;;;;;;2.38;100.00;101477.78;4945388;28;20098;-78
2021/01/03 07:03:53;;;;;;;123.53;31.77;;;;;;;2.36;100.00;101482.31;4954534;28;20038;-80
2021/01/03 07:06:19;;;;;;;121.88;31.63;;;;;;;2.25;100.00;101483.00;4954579;28;20031;-78
2021/01/03 07:08:49;;;;;;;118.30;30.42;;;;;;;2.27;100.00;101474.03;4954798;28;20420;-78
2021/01/03 07:11:41;;;;;;;126.80;33.25;;;;;;;2.31;100.00;101474.69;4954868;28;20110;-77
2021/01/03 07:14:10;;;;;;;143.40;34.42;;;;;;;2.28;100.00;101485.47;4944264;29;20081;-78
2021/01/03 07:16:54;;;;;;;125.38;30.63;;;;;;;2.31;100.00;101480.84;4954149;28;20825;-78
2021/01/03 07:19:37;;;;;;;121.22;30.35;;;;;;;2.29;100.00;101479.22;4953225;29;20028;-79
2021/01/03 07:22:05;;;;;;;112.85;32.45;;;;;;;2.27;100.00;101483.78;4958620;28;20038;-78
2021/01/03 07:24:30;;;;;;;130.77;34.58;;;;;;;2.23;100.00;101492.84;4954354;28;20039;-78
2021/01/03 07:27:15;;;;;;;129.73;32.15;;;;;;;2.19;100.00;101491.34;4954500;28;20097;-78
2021/01/03 07:29:56;;;;;;;127.97;34.47;;;;;;;2.15;100.00;101493.31;4954297;28;20488;-79
2021/01/03 07:32:32;;;;;;;134.98;34.20;;;;;;;2.19;100.00;101489.53;4957461;28;20097;-77
2021/01/03 07:35:02;;;;;;;131.00;33.15;;;;;;;2.23;100.00;101487.56;4973625;28;20118;-79
2021/01/03 07:37:30;;;;;;;128.40;33.50;;;;;;;2.15;100.00;101479.22;4958374;28;20035;-79
2021/01/03 07:40:12;;;;;;;136.65;35.58;;;;;;;2.19;100.00;101491.34;4958592;28;20035;-77
2021/01/03 07:42:42;;;;;;;139.13;33.92;;;;;;;2.23;100.00;101492.84;4956978;29;20023;-78
2021/01/03 07:45:19;;;;;;;125.95;33.33;;;;;;;2.26;100.00;101496.16;4956346;28;20027;-78
2021/01/03 07:47:46;;;;;;;131.63;32.00;;;;;;;2.24;100.00;101495.38;4959273;28;20046;-79
2021/01/03 07:50:27;;;;;;;138.27;33.58;;;;;;;2.15;100.00;101498.59;4958915;28;20035;-78
2021/01/03 07:52:59;;;;;;;126.38;32.97;;;;;;;2.18;100.00;101497.59;4959150;28;20035;-78
2021/01/03 07:55:29;;;;;;;133.32;32.15;;;;;;;2.23;100.00;101501.63;4942061;28;20039;-79
2021/01/03 07:58:13;;;;;;;136.40;35.92;;;;;;;2.17;100.00;101501.19;4973138;28;20035;-78
2021/01/03 08:00:41;;;;;;;136.88;36.95;;;;;;;2.19;100.00;101501.94;4957517;29;20035;-79
2021/01/03 08:03:11;;;;;;;147.15;35.35;;;;;;;2.19;100.00;101493.97;4973811;28;20355;-79
2021/01/03 08:05:39;;;;;;;125.75;32.78;;;;;;;2.19;100.00;101494.81;4957649;29;20101;-79
2021/01/03 08:08:14;;;;;;;140.45;34.75;;;;;;;2.15;100.00;101503.91;4958765;29;20023;-77
2021/01/03 08:10:42;;;;;;;136.43;35.40;;;;;;;2.17;100.00;101502.03;4958160;28;20035;-79
2021/01/03 08:13:15;;;;;;;133.07;35.83;;;;;;;2.22;100.00;101504.41;4941879;29;20027;-79
2021/01/03 08:15:41;;;;;;;141.38;33.63;;;;;;;2.20;100.00;101508.91;4972903;28;20441;-78
2021/01/03 08:18:15;;;;;;;129.88;34.28;;;;;;;2.19;100.00;101508.06;4973754;28;20031;-79
2021/01/03 08:20:41;;;;;;;137.02;36.00;;;;;;;2.13;100.00;101508.47;4962658;28;20070;-78
2021/01/03 08:23:18;;;;;;;134.80;33.20;;;;;;;2.15;100.00;101511.84;4971317;28;20034;-79
2021/01/03 08:25:44;;;;;;;136.65;35.20;;;;;;;2.08;100.00;101505.25;4973179;28;20043;-80
2021/01/03 08:28:18;;;;;;;153.43;37.50;;;;;;;2.17;100.00;101512.63;4972901;28;20522;-79
2021/01/03 08:30:46;;;;;;;136.02;35.35;;;;;;;2.20;100.00;101520.34;4956716;28;20030;-79
2021/01/03 08:33:27;;;;;;;138.23;35.33;;;;;;;2.24;100.00;101513.06;4958370;28;20027;-79
2021/01/03 08:35:52;;;;;;;135.55;34.08;;;;;;;2.18;100.00;101514.31;4956367;29;20099;-79
2021/01/03 08:38:25;;;;;;;133.40;34.78;;;;;;;2.17;100.00;101517.06;4956712;29;20087;-79
2021/01/03 08:40:51;;;;;;;135.98;35.15;;;;;;;2.14;100.00;101515.44;4972368;28;20093;-77
2021/01/03 08:43:23;;;;;;;140.77;35.38;;;;;;;2.17;100.00;101522.34;4972662;28;20493;-77
2021/01/03 08:45:50;;;;;;;137.18;36.05;;;;;;;2.17;100.00;101525.84;4971742;28;20516;-81
2021/01/03 08:48:20;;;;;;;132.93;34.88;;;;;;;2.14;100.00;101526.03;4957317;28;20035;-78
2021/01/03 08:50:46;;;;;;;131.43;32.72;;;;;;;2.24;100.00;101521.88;4957735;28;20031;-79
2021/01/03 08:53:21;;;;;;;130.82;33.60;;;;;;;2.21;100.00;101527.38;4958064;28;20495;-78
2021/01/03 08:55:48;;;;;;;140.63;34.03;;;;;;;2.27;100.00;101524.34;4957378;28;20047;-78
2021/01/03 08:58:17;;;;;;;155.25;35.25;;;;;;;2.33;100.00;101525.75;4957184;29;20035;-76
2021/01/03 09:00:47;;;;;;;146.52;35.92;;;;;;;2.33;100.00;101529.22;4972789;28;20078;-79
2021/01/03 09:03:20;;;;;;;149.02;37.33;;;;;;;2.37;100.00;101529.91;4959668;28;20110;-78
2021/01/03 09:05:50;;;;;;;137.65;37.22;;;;;;;2.36;100.00;101537.91;4956862;28;20030;-77
2021/01/03 09:08:36;;;;;;;144.98;38.42;;;;;;;2.41;100.00;101522.59;4955058;29;20105;-78
2021/01/03 09:11:06;;;;;;;151.00;39.95;;;;;;;2.38;100.00;101533.41;4953989;28;20517;-77
2021/01/03 09:13:32;;;;;;;150.38;35.95;;;;;;;2.42;100.00;101535.75;4954700;28;20035;-77
2021/01/03 09:16:09;;;;;;;161.77;39.13;;;;;;;2.42;100.00;101537.56;4954703;28;20042;-78
2021/01/03 09:18:53;;;;;;;150.05;37.13;;;;;;;2.46;100.00;101539.91;4953733;28;20031;-78
2021/01/03 09:21:19;;;;;;;142.00;37.83;;;;;;;2.49;100.00;101546.81;4956251;28;20117;-78
2021/01/03 09:23:56;;;;;;;147.05;37.95;;;;;;;2.48;100.00;101545.09;4952734;29;20481;-78
2021/01/03 09:26:21;;;;;;;141.30;37.95;;;;;;;2.53;100.00;101554.47;4967741;28;20042;-78
2021/01/03 09:28:47;;;;;;;157.88;38.65;;;;;;;2.55;100.00;101547.25;4953150;29;20027;-78
2021/01/03 09:31:19;;;;;;;153.38;38.67;;;;;;;2.55;100.00;101547.25;4953462;28;20038;-77
2021/01/03 09:33:53;;;;;;;143.75;36.33;;;;;;;2.58;100.00;101552.38;4954468;28;20043;-78
2021/01/03 09:36:42;;;;;;;149.77;39.03;;;;;;;2.59;100.00;101553.22;4953009;28;20477;-78
2021/01/03 09:39:34;;;;;;;148.13;37.63;;;;;;;2.62;100.00;101555.69;4953282;28;20163;-78
2021/01/03 09:42:16;;;;;;;154.75;36.83;;;;;;;2.65;100.00;101547.53;4951751;29;20539;-78
2021/01/03 09:44:55;;;;;;;150.32;36.35;;;;;;;2.66;100.00;101553.66;4967840;28;20493;-78
2021/01/03 09:47:20;;;;;;;136.40;36.20;;;;;;;2.68;100.00;101557.94;4951028;29;20110;-77
2021/01/03 09:49:49;;;;;;;139.45;36.00;;;;;;;2.70;100.00;101558.69;4951549;28;20106;-79
2021/01/03 09:52:30;;;;;;;148.95;38.88;;;;;;;2.73;100.00;101555.84;4966809;28;20032;-78
2021/01/03 09:55:08;;;;;;;130.45;36.70;;;;;;;2.76;100.00;101550.34;4954893;28;20051;-78
2021/01/03 09:57:44;;;;;;;143.63;40.15;;;;;;;2.80;100.00;101553.63;4973109;28;20039;-78
2021/01/03 10:00:14;;;;;;;129.52;35.58;;;;;;;2.81;100.00;101548.25;4957915;28;20032;-78
2021/01/03 10:02:40;;;;;;;128.98;37.45;;;;;;;2.81;100.00;101552.69;4961090;28;20027;-78
2021/01/03 10:05:29;;;;;;;127.45;35.45;;;;;;;2.85;100.00;101546.25;4960816;29;20041;-78
2021/01/03 10:07:58;;;;;;;118.85;33.03;;;;;;;2.89;100.00;101554.84;4953756;29;20047;-78
2021/01/03 10:10:40;;;;;;;128.48;34.83;;;;;;;2.89;100.00;101546.91;4961570;28;20094;-78
2021/01/03 10:13:08;;;;;;;117.28;33.65;;;;;;;2.91;100.00;101552.94;4976961;28;20082;-79
2021/01/03 10:15:33;;;;;;;125.32;34.47;;;;;;;2.94;100.00;101548.28;4961806;28;20448;-78
2021/01/03 10:18:07;;;;;;;115.00;34.63;;;;;;;2.97;100.00;101548.09;4976068;28;20537;-76
2021/01/03 10:20:43;;;;;;;101.47;30.92;;;;;;;3.00;100.00;101541.75;4952134;28;20059;-78
2021/01/03 10:23:15;;;;;;;114.60;31.75;;;;;;;3.01;100.00;101540.78;4959257;29;20039;-78
2021/01/03 10:25:41;;;;;;;113.63;39.63;;;;;;;3.05;100.00;101545.78;4962350;28;20059;-78
2021/01/03 10:28:13;;;;;;;102.90;30.20;;;;;;;3.04;100.00;101543.25;4959952;29;20039;-78
2021/01/03 10:30:40;;;;;;;110.32;30.63;;;;;;;3.08;100.00;101544.75;4974743;28;20346;-79
2021/01/03 10:33:07;;;;;;;100.65;32.42;;;;;;;3.11;100.00;101541.88;4959075;29;20087;-79
2021/01/03 10:35:32;;;;;;;94.15;27.08;;;;;;;3.15;100.00;101539.88;4960460;28;20034;-78
2021/01/03 10:37:58;;;;;;;102.30;29.02;;;;;;;3.20;100.00;101533.31;4974993;28;20024;-78
2021/01/03 10:40:24;;;;;;;85.65;26.67;;;;;;;3.23;100.00;101537.59;4959760;28;20035;-79
2021/01/03 10:42:50;;;;;;;90.45;27.10;;;;;;;3.23;100.00;101529.63;4974862;28;20043;-78
2021/01/03 10:45:18;;;;;;;87.00;27.10;;;;;;;3.23;100.00;101543.72;4960377;28;20031;-78
2021/01/03 10:47:44;;;;;;;82.55;26.80;;;;;;;3.21;100.00;101535.00;4959822;29;20043;-76
2021/01/03 10:50:12;;;;;;;90.00;27.20;;;;;;;3.19;100.00;101538.75;4959264;29;20039;-78
2021/01/03 10:52:38;;;;;;;79.78;26.83;;;;;;;3.19;100.00;101538.75;4960388;28;20035;-78
2021/01/03 10:55:05;;;;;;;83.93;26.63;;;;;;;3.18;100.00;101537.88;4960851;28;20038;-79
2021/01/03 10:57:31;;;;;;;80.05;25.95;;;;;;;3.22;100.00;101541.19;4943396;29;20039;-77
2021/01/03 10:59:56;;;;;;;72.20;24.55;;;;;;;3.25;100.00;101538.31;4959530;28;20031;-78
2021/01/03 11:02:22;;;;;;;76.32;25.13;;;;;;;3.23;100.00;101535.78;4974024;28;20030;-77
2021/01/03 11:04:48;;;;;;;77.15;24.27;;;;;;;3.23;100.00;101525.19;4957971;28;20035;-78
2021/01/03 11:07:14;;;;;;;71.35;24.02;;;;;;;3.23;100.00;101524.31;4957331;28;20035;-78
2021/01/03 11:09:39;;;;;;;71.38;25.08;;;;;;;3.24;100.00;101521.56;4958941;28;20039;-79
2021/01/03 11:12:13;;;;;;;65.70;21.80;;;;;;;3.21;100.00;101521.75;4958204;28;20114;-78
2021/01/03 11:14:39;;;;;;;63.92;21.35;;;;;;;3.20;100.00;101530.66;4957776;28;20038;-78
2021/01/03 11:17:06;;;;;;;71.35;23.63;;;;;;;3.21;100.00;101524.41;4958164;28;20019;-77